Time;durP1;ratioP1;P1;durP2;ratioP2;P2;SDS_P1;SDS_P2;PMS_P1;PMS_P2;Temp;Humidity;BMP_temperature;BMP_pressure;BME280_temperature;BME280_humidity;BME280_pressure;Samples;Min_cycle;Max_cycle;Signal;HPM_P1;HPM_P2
2022/10/18 00:01:00;;;;;;;21.52;10.75;;;17.70;99.90;;;;;;5070475;28;25082;-71
2022/10/18 00:03:26;;;;;;;24.77;12.15;;;17.70;99.90;;;;;;5067458;28;25076;-72
2022/10/18 00:05:51;;;;;;;20.70;10.85;;;17.60;99.90;;;;;;5046896;28;25069;-71
2022/10/18 00:08:18;;;;;;;21.50;10.50;;;17.60;99.90;;;;;;5047928;28;25069;-72
2022/10/18 00:10:44;;;;;;;17.45;10.45;;;17.70;99.90;;;;;;5067985;28;25068;-71
2022/10/18 00:13:10;;;;;;;20.17;11.68;;;17.50;99.90;;;;;;5078436;28;25153;-71
2022/10/18 00:15:36;;;;;;;23.67;10.98;;;17.50;99.90;;;;;;5059791;28;25128;-71
2022/10/18 00:18:01;;;;;;;17.67;10.20;;;17.60;99.90;;;;;;5070894;28;25146;-72
2022/10/18 00:20:27;;;;;;;19.95;10.55;;;17.70;99.90;;;;;;5062492;28;25102;-71
2022/10/18 00:22:53;;;;;;;18.08;9.65;;;17.70;99.90;;;;;;5066422;28;25070;-71
2022/10/18 00:25:19;;;;;;;26.55;11.50;;;17.70;99.90;;;;;;5088061;28;25064;-71
2022/10/18 00:27:45;;;;;;;21.50;12.63;;;17.50;99.90;;;;;;5078770;28;25095;-70
2022/10/18 00:30:11;;;;;;;18.30;10.35;;;17.50;99.90;;;;;;5070345;28;25099;-71
2022/10/18 00:32:40;;;;;;;27.83;10.85;;;17.40;99.90;;;;;;5058039;28;25173;-71
2022/10/18 00:35:07;;;;;;;24.05;10.40;;;17.30;99.90;;;;;;5061550;28;25146;-71
2022/10/18 00:37:34;;;;;;;21.05;11.02;;;17.30;99.90;;;;;;5062059;28;25065;-70
2022/10/18 00:39:59;;;;;;;20.98;11.50;;;17.30;99.90;;;;;;5058717;28;25065;-70
2022/10/18 00:42:31;;;;;;;19.33;10.95;;;17.30;99.90;;;;;;5056794;28;25054;-71
2022/10/18 00:45:14;;;;;;;20.13;10.82;;;17.20;99.90;;;;;;5056796;28;25152;-72
2022/10/18 00:47:40;;;;;;;16.88;9.27;;;17.30;99.90;;;;;;5058250;28;25097;-70
2022/10/18 00:50:07;;;;;;;14.88;8.63;;;17.40;99.90;;;;;;5063152;28;25074;-71
2022/10/18 00:52:41;;;;;;;16.42;10.05;;;17.40;99.90;;;;;;5067895;28;25076;-71
2022/10/18 00:55:07;;;;;;;21.70;10.68;;;17.20;99.90;;;;;;5069278;28;25070;-71
2022/10/18 00:57:34;;;;;;;22.70;9.85;;;17.10;99.90;;;;;;5058930;28;25060;-71
2022/10/18 01:00:00;;;;;;;26.88;10.45;;;17.20;99.90;;;;;;5070572;28;25141;-71
2022/10/18 01:02:27;;;;;;;20.13;9.88;;;17.10;99.90;;;;;;5063674;28;25144;-71
2022/10/18 01:04:53;;;;;;;18.05;10.02;;;17.00;99.90;;;;;;5072886;28;25140;-70
2022/10/18 01:07:24;;;;;;;19.83;10.57;;;17.10;99.90;;;;;;5053259;28;25147;-71
2022/10/18 01:09:59;;;;;;;20.92;10.35;;;17.00;99.90;;;;;;5066448;28;25056;-71
2022/10/18 01:12:34;;;;;;;20.60;9.98;;;16.90;99.90;;;;;;5049050;28;25058;-72
2022/10/18 01:15:14;;;;;;;21.50;9.95;;;16.90;99.90;;;;;;5067266;28;25141;-71
2022/10/18 01:18:01;;;;;;;22.10;9.65;;;16.90;99.90;;;;;;5078037;28;25127;-71
2022/10/18 01:20:36;;;;;;;24.73;11.30;;;16.90;99.90;;;;;;5062444;28;25088;-70
2022/10/18 01:23:16;;;;;;;21.75;10.70;;;16.80;99.90;;;;;;5072354;28;25082;-71
2022/10/18 01:26:06;;;;;;;19.65;10.40;;;16.80;99.90;;;;;;5078514;28;25110;-71
2022/10/18 01:28:58;;;;;;;22.88;11.10;;;16.70;99.90;;;;;;5082245;28;25082;-71
2022/10/18 01:31:37;;;;;;;27.80;11.37;;;16.70;99.90;;;;;;5069227;28;25078;-70
2022/10/18 01:34:06;;;;;;;22.85;11.50;;;16.60;99.90;;;;;;5070370;28;25114;-70
2022/10/18 01:36:36;;;;;;;20.65;11.27;;;16.60;99.90;;;;;;5066956;28;25107;-70
2022/10/18 01:39:08;;;;;;;31.45;12.73;;;16.60;99.90;;;;;;5098340;28;25055;-71
2022/10/18 01:41:37;;;;;;;31.00;12.57;;;16.40;99.90;;;;;;5098670;28;25077;-70
2022/10/18 01:44:06;;;;;;;31.00;12.55;;;16.40;99.90;;;;;;5080978;28;25063;-71
2022/10/18 01:46:32;;;;;;;24.77;12.50;;;16.40;99.90;;;;;;5093264;28;25066;-71
2022/10/18 01:48:59;;;;;;;38.60;13.43;;;16.60;99.90;;;;;;5056237;28;25143;-71
2022/10/18 01:51:30;;;;;;;26.98;12.85;;;16.50;99.90;;;;;;5055863;28;25078;-71
2022/10/18 01:53:56;;;;;;;33.10;13.13;;;16.40;99.90;;;;;;5065983;28;25038;-71
2022/10/18 01:56:37;;;;;;;26.38;13.02;;;16.60;99.90;;;;;;5068010;28;24763;-70
2022/10/18 01:59:37;;;;;;;21.98;11.63;;;16.80;99.90;;;;;;5070014;28;25068;-70
2022/10/18 02:02:27;;;;;;;27.23;12.50;;;16.60;99.90;;;;;;5066310;28;25076;-70
2022/10/18 02:04:57;;;;;;;32.67;12.65;;;16.50;99.90;;;;;;5066354;28;25092;-70
2022/10/18 02:07:46;;;;;;;51.88;16.58;;;16.20;99.90;;;;;;5051965;28;25064;-70
2022/10/18 02:10:23;;;;;;;38.08;14.45;;;16.30;99.90;;;;;;5080516;28;25060;-71
2022/10/18 02:12:51;;;;;;;31.55;13.57;;;16.40;99.90;;;;;;5071675;28;25072;-71
2022/10/18 02:15:21;;;;;;;45.05;14.57;;;16.50;99.90;;;;;;5063720;28;25141;-71
2022/10/18 02:17:47;;;;;;;37.78;14.68;;;16.50;99.90;;;;;;5076193;28;25061;-70
2022/10/18 02:20:15;;;;;;;45.33;13.68;;;16.40;99.90;;;;;;5065248;28;25071;-70
2022/10/18 02:22:44;;;;;;;46.72;14.63;;;16.30;99.90;;;;;;5071473;28;25150;-70
2022/10/18 02:25:15;;;;;;;30.83;13.88;;;16.40;99.90;;;;;;5060843;28;25065;-70
2022/10/18 02:27:41;;;;;;;47.42;16.30;;;16.50;99.90;;;;;;5059992;28;25072;-70
2022/10/18 02:30:07;;;;;;;46.38;17.10;;;16.50;99.90;;;;;;5060509;28;25143;-70
2022/10/18 02:32:47;;;;;;;31.33;14.68;;;16.50;99.90;;;;;;5057718;28;25107;-71
2022/10/18 02:35:26;;;;;;;34.97;13.40;;;16.60;99.90;;;;;;5061961;28;25162;-69
2022/10/18 02:37:54;;;;;;;31.52;13.45;;;16.50;99.90;;;;;;5052128;28;25123;-70
2022/10/18 02:40:20;;;;;;;23.77;12.25;;;16.40;99.90;;;;;;5050528;28;25104;-70
2022/10/18 02:42:52;;;;;;;29.70;12.68;;;16.50;99.90;;;;;;5051468;28;25076;-70
2022/10/18 02:45:18;;;;;;;26.45;14.02;;;16.30;99.90;;;;;;5052072;28;25108;-70
2022/10/18 02:47:43;;;;;;;25.67;13.13;;;16.30;99.90;;;;;;5061449;28;25105;-71
2022/10/18 02:50:09;;;;;;;32.45;14.02;;;16.30;99.90;;;;;;5058885;28;25054;-70
2022/10/18 02:52:35;;;;;;;30.45;13.13;;;16.40;99.90;;;;;;5057288;28;25070;-70
2022/10/18 02:55:01;;;;;;;30.67;14.52;;;16.40;99.90;;;;;;5059105;28;25061;-71
2022/10/18 02:57:26;;;;;;;26.83;12.32;;;16.40;99.90;;;;;;5060378;28;25053;-69
2022/10/18 02:59:52;;;;;;;26.90;12.50;;;16.30;99.90;;;;;;5061186;28;25055;-70
2022/10/18 03:02:18;;;;;;;27.67;12.88;;;16.30;99.90;;;;;;5076934;28;25097;-70
2022/10/18 03:04:43;;;;;;;31.95;14.43;;;16.30;99.90;;;;;;5074480;28;25096;-70
2022/10/18 03:07:09;;;;;;;32.75;13.60;;;16.20;99.90;;;;;;5075351;28;25106;-70
2022/10/18 03:09:34;;;;;;;33.42;12.18;;;16.20;99.90;;;;;;5069395;28;25070;-70
2022/10/18 03:12:00;;;;;;;23.58;12.50;;;16.20;99.90;;;;;;5075811;28;25056;-70
2022/10/18 03:14:25;;;;;;;27.42;13.55;;;16.20;99.90;;;;;;5071858;28;25058;-70
2022/10/18 03:16:51;;;;;;;27.40;13.45;;;16.20;99.90;;;;;;5075747;28;25105;-70
2022/10/18 03:19:16;;;;;;;32.60;14.55;;;16.10;99.90;;;;;;5062439;28;25124;-71
2022/10/18 03:21:42;;;;;;;33.15;13.60;;;16.20;99.90;;;;;;5074630;28;25112;-71
2022/10/18 03:24:08;;;;;;;29.75;13.98;;;16.10;99.90;;;;;;5074982;28;25068;-70
2022/10/18 03:26:33;;;;;;;31.80;14.50;;;16.10;99.90;;;;;;5062196;28;25111;-72
2022/10/18 03:28:59;;;;;;;30.02;12.95;;;16.10;99.90;;;;;;5053092;28;25100;-71
2022/10/18 03:31:25;;;;;;;33.83;12.90;;;16.10;99.90;;;;;;5074563;28;25101;-71
2022/10/18 03:33:50;;;;;;;42.22;15.07;;;16.20;99.90;;;;;;5044464;28;25073;-70
2022/10/18 03:36:16;;;;;;;43.03;13.63;;;16.00;99.90;;;;;;5060056;28;25219;-70
2022/10/18 03:38:42;;;;;;;48.25;13.50;;;16.10;99.90;;;;;;5068298;28;25100;-70
2022/10/18 03:41:07;;;;;;;50.83;16.83;;;16.10;99.90;;;;;;5055756;28;25128;-69
2022/10/18 03:43:33;;;;;;;30.08;12.80;;;15.80;99.90;;;;;;5071512;28;25080;-71
2022/10/18 03:45:59;;;;;;;56.13;15.23;;;15.80;99.90;;;;;;5072971;28;25087;-70
2022/10/18 03:48:25;;;;;;;44.85;14.13;;;15.80;99.90;;;;;;5056320;28;25053;-70
2022/10/18 03:50:50;;;;;;;83.50;17.08;;;15.80;99.90;;;;;;5073966;28;25141;-70
2022/10/18 03:53:16;;;;;;;44.28;13.07;;;15.70;99.90;;;;;;5076024;28;25056;-69
2022/10/18 03:55:41;;;;;;;34.58;12.95;;;15.80;99.90;;;;;;5067229;28;25062;-69
2022/10/18 03:58:07;;;;;;;35.00;12.00;;;15.90;99.90;;;;;;5079347;28;25055;-69
2022/10/18 04:00:33;;;;;;;33.33;12.68;;;15.90;99.90;;;;;;5067374;28;25060;-69
2022/10/18 04:02:58;;;;;;;40.70;13.05;;;15.90;99.90;;;;;;5077852;28;25105;-71
2022/10/18 04:05:26;;;;;;;41.28;14.50;;;16.10;99.90;;;;;;5073232;28;25066;-70
2022/10/18 04:07:53;;;;;;;91.40;16.45;;;16.20;99.90;;;;;;5060891;28;25143;-70
2022/10/18 04:10:18;;;;;;;68.40;14.15;;;16.10;99.90;;;;;;5082696;28;25117;-70
2022/10/18 04:12:44;;;;;;;53.75;12.98;;;16.20;99.90;;;;;;5083084;28;25136;-70
2022/10/18 04:15:10;;;;;;;25.05;10.85;;;16.10;99.90;;;;;;5077228;28;25138;-70
2022/10/18 04:17:36;;;;;;;68.68;14.88;;;16.40;99.90;;;;;;5062539;28;25060;-72
2022/10/18 04:20:01;;;;;;;55.05;14.95;;;16.40;99.90;;;;;;5084968;28;25137;-70
2022/10/18 04:22:27;;;;;;;79.32;18.25;;;16.10;99.90;;;;;;5067045;28;25082;-71
2022/10/18 04:24:52;;;;;;;59.10;14.05;;;16.30;99.90;;;;;;5082714;28;25081;-70
2022/10/18 04:27:18;;;;;;;45.33;12.57;;;16.30;99.90;;;;;;5082124;28;25151;-70
2022/10/18 04:29:44;;;;;;;49.17;13.23;;;16.10;99.90;;;;;;5091712;28;25098;-72
2022/10/18 04:32:09;;;;;;;31.73;11.55;;;16.00;99.90;;;;;;5083645;28;25087;-71
2022/10/18 04:34:35;;;;;;;32.63;12.35;;;15.90;99.90;;;;;;5060987;28;25138;-70
2022/10/18 04:37:01;;;;;;;34.90;11.70;;;15.80;99.90;;;;;;5087591;28;25096;-70
2022/10/18 04:39:26;;;;;;;42.08;11.85;;;15.90;99.90;;;;;;5075164;28;25053;-71
2022/10/18 04:41:52;;;;;;;46.30;13.70;;;16.00;99.90;;;;;;5062910;28;25071;-71
2022/10/18 04:44:17;;;;;;;27.63;11.68;;;15.90;99.90;;;;;;5079794;28;25105;-72
2022/10/18 04:46:43;;;;;;;39.60;13.02;;;15.80;99.90;;;;;;5076897;28;25054;-72
2022/10/18 04:49:09;;;;;;;29.42;12.65;;;15.80;99.90;;;;;;5073359;28;25145;-70
2022/10/18 04:51:34;;;;;;;30.23;12.77;;;15.70;99.90;;;;;;5077075;28;25055;-71
2022/10/18 04:54:00;;;;;;;23.58;12.32;;;15.70;99.90;;;;;;5078670;28;25055;-71
2022/10/18 04:56:25;;;;;;;20.48;10.82;;;15.90;99.90;;;;;;5073779;28;25095;-71
2022/10/18 04:58:51;;;;;;;24.38;11.10;;;15.90;99.90;;;;;;5073641;28;25066;-71
2022/10/18 05:01:17;;;;;;;29.33;12.05;;;16.00;99.90;;;;;;5078665;28;25071;-71
2022/10/18 05:03:43;;;;;;;36.63;13.85;;;15.90;99.90;;;;;;5086820;28;25057;-73
2022/10/18 05:06:09;;;;;;;33.83;13.90;;;15.80;99.90;;;;;;5085657;28;25143;-71
2022/10/18 05:08:35;;;;;;;22.90;11.13;;;15.70;99.90;;;;;;5082189;28;25074;-73
2022/10/18 05:11:02;;;;;;;31.23;12.25;;;15.70;99.90;;;;;;5094887;28;25161;-71
2022/10/18 05:13:28;;;;;;;33.63;13.20;;;15.70;99.90;;;;;;5084824;28;25095;-71
2022/10/18 05:15:53;;;;;;;32.35;14.40;;;15.60;99.90;;;;;;5073220;28;25079;-70
2022/10/18 05:18:19;;;;;;;24.42;11.32;;;15.50;99.90;;;;;;5066068;28;25059;-71
2022/10/18 05:20:45;;;;;;;24.40;11.50;;;15.40;99.90;;;;;;5052050;28;25062;-71
2022/10/18 05:23:11;;;;;;;22.83;10.77;;;15.50;99.90;;;;;;5067282;28;25132;-71
2022/10/18 05:25:41;;;;;;;35.97;12.75;;;15.30;99.90;;;;;;5061496;28;25062;-71
2022/10/18 05:28:07;;;;;;;26.17;11.57;;;15.30;99.90;;;;;;5073231;28;25066;-71
2022/10/18 05:30:33;;;;;;;25.15;12.80;;;15.40;99.90;;;;;;5052872;28;25118;-71
2022/10/18 05:32:58;;;;;;;37.97;14.20;;;15.50;99.90;;;;;;5049412;28;25153;-70
2022/10/18 05:35:24;;;;;;;29.33;13.45;;;15.50;99.90;;;;;;5067397;28;25094;-71
2022/10/18 05:37:50;;;;;;;25.30;12.85;;;15.50;99.90;;;;;;5058375;28;25056;-70
2022/10/18 05:40:15;;;;;;;31.00;12.23;;;15.60;99.90;;;;;;5058435;28;25072;-71
2022/10/18 05:42:41;;;;;;;25.70;12.38;;;15.60;99.90;;;;;;5063993;28;25126;-71
2022/10/18 05:45:07;;;;;;;82.68;18.58;;;15.80;99.90;;;;;;5077514;28;25143;-71
2022/10/18 05:47:33;;;;;;;22.70;11.98;;;15.60;99.90;;;;;;5061283;28;25163;-71
2022/10/18 05:49:58;;;;;;;34.42;13.27;;;15.60;99.90;;;;;;5077634;28;25094;-71
2022/10/18 05:52:24;;;;;;;23.27;13.05;;;15.70;99.90;;;;;;5063588;28;25072;-71
2022/10/18 05:54:49;;;;;;;42.25;14.27;;;15.70;99.90;;;;;;5054579;28;25070;-71
2022/10/18 05:57:15;;;;;;;41.97;15.57;;;15.50;99.90;;;;;;5056306;28;25147;-72
2022/10/18 05:59:41;;;;;;;22.48;11.80;;;15.60;99.90;;;;;;5056150;28;25140;-70
2022/10/18 06:02:08;;;;;;;24.02;12.52;;;15.80;99.90;;;;;;5059469;28;25151;-71
2022/10/18 06:04:34;;;;;;;27.58;13.20;;;15.50;99.90;;;;;;5056974;28;25129;-70
2022/10/18 06:07:00;;;;;;;44.97;13.68;;;15.40;99.90;;;;;;5069504;28;25076;-72
2022/10/18 06:09:27;;;;;;;45.15;14.43;;;15.40;99.90;;;;;;5049314;28;25142;-72
2022/10/18 06:11:53;;;;;;;26.50;12.68;;;15.30;99.90;;;;;;5063424;28;25154;-71
2022/10/18 06:14:18;;;;;;;22.27;12.15;;;15.30;99.90;;;;;;5055074;28;25061;-72
2022/10/18 06:16:44;;;;;;;32.15;13.07;;;15.20;99.90;;;;;;5060610;28;25046;-70
2022/10/18 06:19:09;;;;;;;21.52;12.05;;;15.10;99.90;;;;;;5057709;28;25139;-71
2022/10/18 06:21:35;;;;;;;21.48;11.50;;;15.20;99.90;;;;;;5062005;28;25074;-71
2022/10/18 06:24:01;;;;;;;19.00;11.32;;;15.10;99.90;;;;;;5061971;28;25082;-70
2022/10/18 06:26:27;;;;;;;20.25;9.73;;;15.00;99.90;;;;;;5063394;28;25064;-71
2022/10/18 06:28:52;;;;;;;21.48;11.13;;;14.90;99.90;;;;;;5067344;28;25070;-70
2022/10/18 06:31:20;;;;;;;21.85;11.15;;;15.10;99.90;;;;;;5044870;28;25067;-72
2022/10/18 06:33:45;;;;;;;20.67;11.48;;;15.30;99.90;;;;;;5064844;28;25091;-73
2022/10/18 06:36:15;;;;;;;19.35;10.30;;;15.30;99.90;;;;;;5069250;28;25171;-72
2022/10/18 06:38:40;;;;;;;19.05;10.68;;;15.20;99.90;;;;;;5075252;28;25067;-74
2022/10/18 06:41:07;;;;;;;20.10;11.32;;;15.30;99.90;;;;;;5077888;28;25115;-72
2022/10/18 06:43:33;;;;;;;18.60;10.77;;;15.50;99.90;;;;;;5077706;28;25045;-73
2022/10/18 06:46:02;;;;;;;15.15;10.05;;;15.50;99.90;;;;;;5078133;28;25122;-73
2022/10/18 06:48:28;;;;;;;25.70;11.13;;;15.40;99.90;;;;;;5075364;28;25068;-73
2022/10/18 06:50:58;;;;;;;16.23;9.25;;;15.50;99.90;;;;;;5079114;28;25141;-75
2022/10/18 06:53:30;;;;;;;25.08;10.30;;;15.50;99.90;;;;;;5080283;28;25081;-75
2022/10/18 06:56:07;;;;;;;19.55;10.20;;;15.60;99.90;;;;;;5067373;28;25061;-75
2022/10/18 06:58:34;;;;;;;18.33;9.65;;;15.30;99.90;;;;;;5056965;28;25119;-73
2022/10/18 07:01:05;;;;;;;16.30;10.20;;;15.40;99.90;;;;;;5047497;28;25051;-75
2022/10/18 07:03:33;;;;;;;19.08;10.20;;;15.40;99.90;;;;;;5071121;28;25078;-74
2022/10/18 07:06:04;;;;;;;21.15;10.15;;;15.40;99.90;;;;;;5063384;28;25090;-74
2022/10/18 07:08:30;;;;;;;22.30;10.63;;;15.30;99.90;;;;;;5058936;28;25066;-74
2022/10/18 07:10:56;;;;;;;22.75;10.43;;;15.30;99.90;;;;;;5071272;28;25072;-72
2022/10/18 07:13:22;;;;;;;18.42;10.40;;;15.30;99.90;;;;;;5075385;28;25072;-72
2022/10/18 07:15:47;;;;;;;19.33;9.73;;;15.30;99.90;;;;;;5053562;28;25059;-73
2022/10/18 07:18:13;;;;;;;15.38;8.52;;;15.20;99.90;;;;;;5081160;28;25077;-73
2022/10/18 07:20:39;;;;;;;19.30;9.13;;;15.30;99.90;;;;;;5060044;28;25099;-73
2022/10/18 07:23:07;;;;;;;22.25;9.63;;;15.40;99.90;;;;;;5060429;28;25058;-73
2022/10/18 07:25:33;;;;;;;17.80;10.07;;;15.50;99.90;;;;;;5070928;28;25152;-73
2022/10/18 07:27:59;;;;;;;18.63;9.77;;;15.60;99.90;;;;;;5066986;28;25134;-72
2022/10/18 07:30:24;;;;;;;17.35;9.25;;;15.60;99.90;;;;;;5062286;28;25162;-71
2022/10/18 07:32:50;;;;;;;17.60;8.68;;;15.70;99.90;;;;;;5047132;28;25064;-73
2022/10/18 07:35:16;;;;;;;21.02;9.73;;;15.80;99.90;;;;;;5061957;28;25057;-73
2022/10/18 07:37:42;;;;;;;19.90;9.98;;;15.80;99.90;;;;;;5076377;28;25153;-73
2022/10/18 07:40:08;;;;;;;20.00;10.65;;;15.80;99.90;;;;;;5061998;28;25111;-73
2022/10/18 07:42:34;;;;;;;20.48;10.52;;;15.90;99.90;;;;;;5070193;28;25083;-71
2022/10/18 07:45:00;;;;;;;19.90;8.90;;;16.10;99.90;;;;;;5061424;28;25070;-73
2022/10/18 07:47:26;;;;;;;26.55;7.65;;;16.10;99.90;;;;;;5065571;28;25111;-72
2022/10/18 07:49:51;;;;;;;25.20;8.27;;;16.30;99.90;;;;;;5056976;28;25077;-73
2022/10/18 07:52:17;;;;;;;22.15;6.75;;;16.80;99.90;;;;;;5062990;28;25065;-73
2022/10/18 07:54:42;;;;;;;22.20;7.10;;;17.10;99.90;;;;;;5063335;28;25082;-72
2022/10/18 07:57:08;;;;;;;19.13;7.70;;;17.30;99.90;;;;;;5075372;28;25134;-72
2022/10/18 07:59:33;;;;;;;21.73;6.72;;;17.40;99.90;;;;;;5043073;28;25111;-72
2022/10/18 08:01:59;;;;;;;22.33;5.93;;;17.70;99.90;;;;;;5074669;28;25126;-73
2022/10/18 08:04:25;;;;;;;23.05;5.53;;;17.70;99.90;;;;;;5069169;28;25108;-74
2022/10/18 08:06:50;;;;;;;18.23;5.88;;;17.90;99.90;;;;;;5074430;28;25074;-73
2022/10/18 08:09:16;;;;;;;20.00;5.28;;;18.00;99.90;;;;;;5072699;28;25087;-74
2022/10/18 08:11:41;;;;;;;17.30;5.28;;;18.10;99.90;;;;;;5055649;28;25098;-72
2022/10/18 08:14:07;;;;;;;29.42;4.43;;;18.20;99.90;;;;;;5060010;28;25059;-73
2022/10/18 08:16:32;;;;;;;17.75;5.15;;;18.20;99.90;;;;;;5044424;28;25111;-73
2022/10/18 08:18:58;;;;;;;19.85;5.03;;;18.40;99.90;;;;;;5062513;28;25057;-72
2022/10/18 08:21:25;;;;;;;23.67;4.68;;;18.50;99.90;;;;;;5054225;28;25077;-73
2022/10/18 08:23:52;;;;;;;17.63;3.78;;;18.40;99.90;;;;;;5078981;28;25064;-72
2022/10/18 08:26:20;;;;;;;8.70;3.22;;;18.40;99.90;;;;;;5079239;28;25136;-72
2022/10/18 08:28:45;;;;;;;13.95;3.50;;;18.60;99.90;;;;;;5076945;28;25058;-72
2022/10/18 08:31:13;;;;;;;14.05;2.75;;;18.60;99.90;;;;;;5080917;28;25073;-72
2022/10/18 08:33:39;;;;;;;8.43;2.88;;;18.30;99.90;;;;;;5082434;28;25064;-74
2022/10/18 08:36:07;;;;;;;18.25;2.63;;;18.00;99.90;;;;;;5079613;28;25088;-73
2022/10/18 08:38:34;;;;;;;7.43;2.10;;;18.00;99.90;;;;;;5075679;28;25128;-72
2022/10/18 08:41:19;;;;;;;10.82;2.10;;;18.50;99.90;;;;;;5068900;28;25127;-72
2022/10/18 08:44:16;;;;;;;13.90;2.20;;;18.20;99.90;;;;;;5075030;28;25065;-73
2022/10/18 08:46:45;;;;;;;6.45;1.98;;;18.20;99.90;;;;;;5043662;28;25055;-73
2022/10/18 08:49:25;;;;;;;12.88;1.98;;;18.00;99.90;;;;;;5066779;28;25047;-73
2022/10/18 08:51:52;;;;;;;15.98;5.22;;;17.90;99.90;;;;;;5071446;28;25102;-72
2022/10/18 08:54:33;;;;;;;9.30;1.75;;;17.50;99.90;;;;;;5067491;28;25152;-72
2022/10/18 08:57:01;;;;;;;14.23;1.95;;;17.20;99.90;;;;;;5067674;28;25163;-72
2022/10/18 08:59:39;;;;;;;11.27;1.75;;;17.10;99.90;;;;;;5067556;28;25081;-73
2022/10/18 09:02:24;;;;;;;10.55;2.40;;;16.90;99.90;;;;;;5066850;28;25068;-72
2022/10/18 09:05:20;;;;;;;8.23;1.83;;;16.80;99.90;;;;;;5072444;28;25069;-72
2022/10/18 09:08:12;;;;;;;7.40;1.95;;;16.30;99.90;;;;;;5072827;28;25063;-73
2022/10/18 09:10:52;;;;;;;12.52;2.70;;;16.40;99.90;;;;;;5073008;28;25049;-72
2022/10/18 09:13:36;;;;;;;6.45;2.33;;;16.50;99.90;;;;;;5035138;28;25076;-72
2022/10/18 09:16:06;;;;;;;8.10;1.92;;;16.70;99.90;;;;;;5054083;28;25080;-72
2022/10/18 09:18:37;;;;;;;5.78;1.98;;;16.30;99.90;;;;;;5086362;28;25084;-73
2022/10/18 09:21:24;;;;;;;3.22;1.70;;;16.30;99.90;;;;;;5074618;28;25068;-72
2022/10/18 09:23:58;;;;;;;7.90;1.73;;;16.50;99.90;;;;;;5082364;28;25060;-71
2022/10/18 09:26:25;;;;;;;6.25;1.70;;;16.60;99.90;;;;;;5081578;28;25067;-71
2022/10/18 09:29:12;;;;;;;8.73;1.60;;;16.50;99.90;;;;;;5075828;28;25081;-72
2022/10/18 09:31:55;;;;;;;7.57;1.73;;;16.00;99.90;;;;;;5069915;28;25108;-72
2022/10/18 09:34:35;;;;;;;6.35;1.27;;;16.00;99.90;;;;;;5052968;28;25068;-73
2022/10/18 09:37:01;;;;;;;8.60;2.17;;;15.80;99.90;;;;;;5065290;28;25149;-71
2022/10/18 09:39:37;;;;;;;6.13;0.98;;;15.80;99.90;;;;;;5070841;28;25107;-71
2022/10/18 09:42:30;;;;;;;11.80;1.75;;;16.00;99.90;;;;;;5070997;28;25068;-72
2022/10/18 09:45:19;;;;;;;7.50;1.48;;;16.30;99.90;;;;;;5068735;28;25093;-72
2022/10/18 09:47:52;;;;;;;7.10;1.67;;;16.30;99.90;;;;;;5075589;28;25062;-72
2022/10/18 09:50:35;;;;;;;4.50;1.58;;;16.30;99.90;;;;;;5080149;28;25099;-73
2022/10/18 09:53:11;;;;;;;6.18;1.15;;;16.10;99.90;;;;;;5072228;28;25071;-72
2022/10/18 09:56:25;;;;;;;7.30;1.15;;;15.90;99.90;;;;;;5054081;28;25094;-71
2022/10/18 09:58:50;;;;;;;5.20;0.98;;;16.00;99.90;;;;;;5053566;28;25211;-72
2022/10/18 10:01:25;;;;;;;5.20;2.15;;;15.90;99.90;;;;;;5079766;28;25157;-72
2022/10/18 10:03:51;;;;;;;4.88;1.10;;;16.20;99.90;;;;;;5068093;28;25087;-73
2022/10/18 10:06:23;;;;;;;5.25;1.25;;;16.30;99.90;;;;;;5073473;28;25047;-71
2022/10/18 10:09:11;;;;;;;4.80;1.25;;;16.50;99.90;;;;;;5062624;28;25066;-73
2022/10/18 10:11:44;;;;;;;13.20;1.75;;;16.70;99.90;;;;;;5061796;28;25059;-72
2022/10/18 10:14:25;;;;;;;8.25;1.80;;;16.80;99.90;;;;;;5064506;28;25089;-70
2022/10/18 10:17:22;;;;;;;7.53;1.33;;;16.70;99.90;;;;;;5075009;28;25097;-72
2022/10/18 10:20:12;;;;;;;6.13;1.05;;;16.60;99.90;;;;;;5074661;28;25066;-73
2022/10/18 10:22:40;;;;;;;8.63;1.83;;;16.60;99.90;;;;;;5077825;28;25126;-73
2022/10/18 10:25:17;;;;;;;3.75;1.10;;;16.50;99.90;;;;;;5075161;28;25068;-73
2022/10/18 10:27:44;;;;;;;5.28;1.25;;;16.40;99.90;;;;;;5074920;28;25044;-70
2022/10/18 10:30:32;;;;;;;1.98;0.80;;;16.40;99.90;;;;;;5078894;28;25052;-72
2022/10/18 10:32:58;;;;;;;6.53;1.23;;;16.60;99.90;;;;;;5051608;28;25067;-72
2022/10/18 10:35:33;;;;;;;8.95;2.33;;;16.70;99.90;;;;;;5055505;28;25124;-73
2022/10/18 10:37:59;;;;;;;8.60;1.00;;;16.70;99.90;;;;;;5070209;28;25074;-72
2022/10/18 10:40:51;;;;;;;8.38;1.55;;;16.60;99.90;;;;;;5073097;28;25063;-72
2022/10/18 10:43:35;;;;;;;4.05;1.20;;;16.80;99.90;;;;;;5071696;28;25077;-73
2022/10/18 10:46:05;;;;;;;7.93;1.88;;;16.80;99.90;;;;;;5066679;28;25078;-73
2022/10/18 10:48:38;;;;;;;6.03;1.17;;;16.80;99.90;;;;;;5043386;28;25143;-75
2022/10/18 10:51:07;;;;;;;10.85;2.05;;;16.70;99.90;;;;;;5050732;28;25110;-75
2022/10/18 10:53:35;;;;;;;5.78;1.38;;;16.70;99.90;;;;;;5077653;28;25118;-73
2022/10/18 10:56:01;;;;;;;10.65;1.50;;;16.70;99.90;;;;;;5057427;28;25100;-74
2022/10/18 10:58:36;;;;;;;3.47;1.25;;;16.90;99.90;;;;;;5073691;28;25148;-74
2022/10/18 11:01:17;;;;;;;10.35;3.20;;;17.10;99.90;;;;;;5061088;28;25117;-75
2022/10/18 11:03:47;;;;;;;4.25;1.20;;;17.50;99.90;;;;;;5075179;28;25140;-74
2022/10/18 11:06:31;;;;;;;7.10;1.13;;;17.60;99.90;;;;;;5068973;28;25120;-75
2022/10/18 11:08:58;;;;;;;7.63;1.65;;;17.60;99.90;;;;;;5072601;28;25140;-75
2022/10/18 11:11:32;;;;;;;5.93;1.58;;;17.60;99.90;;;;;;5077003;28;25067;-76
2022/10/18 11:14:22;;;;;;;6.90;1.15;;;17.50;99.90;;;;;;5067370;28;25054;-73
2022/10/18 11:16:57;;;;;;;3.10;1.00;;;17.70;99.90;;;;;;5074688;28;25101;-73
2022/10/18 11:19:47;;;;;;;9.98;1.80;;;17.70;99.90;;;;;;5077918;28;25046;-72
2022/10/18 11:22:20;;;;;;;12.40;1.27;;;18.10;99.90;;;;;;5066664;28;25097;-73
2022/10/18 11:24:46;;;;;;;4.65;1.45;;;18.10;99.90;;;;;;5071652;28;25100;-72
2022/10/18 11:27:28;;;;;;;6.65;1.75;;;18.00;99.90;;;;;;5073398;28;25106;-71
2022/10/18 11:30:09;;;;;;;8.73;1.40;;;18.20;99.90;;;;;;5074952;28;25050;-70
2022/10/18 11:32:50;;;;;;;3.33;1.08;;;18.60;99.90;;;;;;5076988;28;25157;-72
2022/10/18 11:35:33;;;;;;;9.10;1.80;;;18.70;99.90;;;;;;5067927;28;25066;-71
2022/10/18 11:38:05;;;;;;;;;;;19.40;99.90;;;;;;5069675;28;25050;-71
2022/10/18 11:40:55;;;;;;;4.18;1.25;;;19.70;99.90;;;;;;5075056;28;24141;-72
2022/10/18 11:43:24;;;;;;;3.60;1.00;;;19.80;99.90;;;;;;5070578;28;25057;-71
2022/10/18 11:45:55;;;;;;;4.47;1.15;;;19.40;99.90;;;;;;5071803;28;25157;-71
2022/10/18 11:48:42;;;;;;;4.32;1.52;;;19.30;99.90;;;;;;5068799;28;25070;-73
2022/10/18 11:51:31;;;;;;;4.10;1.20;;;18.90;99.90;;;;;;5064051;28;25100;-72
2022/10/18 11:54:40;;;;;;;6.70;1.63;;;19.20;99.90;;;;;;5073140;28;25066;-74
2022/10/18 11:57:23;;;;;;;4.38;1.35;;;19.10;99.90;;;;;;5070018;28;25065;-73
2022/10/18 12:00:01;;;;;;;6.78;1.30;;;18.90;99.90;;;;;;5070671;28;25054;-73
2022/10/18 12:03:22;;;;;;;4.57;1.10;;;19.00;99.90;;;;;;5070000;28;25060;-72
2022/10/18 12:05:51;;;;;;;7.47;1.45;;;19.00;99.90;;;;;;4987396;28;25177;-71
2022/10/18 12:08:34;;;;;;;10.77;1.42;;;19.20;99.90;;;;;;5034655;28;25107;-71
2022/10/18 12:11:09;;;;;;;6.95;1.20;;;19.40;99.90;;;;;;5061835;28;25065;-73
2022/10/18 12:13:55;;;;;;;2.22;1.02;;;19.40;99.90;;;;;;5066885;28;25069;-73
2022/10/18 12:16:23;;;;;;;6.00;1.38;;;19.50;99.90;;;;;;5076321;28;25084;-75
2022/10/18 12:18:54;;;;;;;6.82;1.15;;;19.40;99.90;;;;;;5066600;28;25163;-72
2022/10/18 12:21:22;;;;;;;8.32;1.52;;;19.70;99.90;;;;;;5068765;28;25076;-70
2022/10/18 12:23:53;;;;;;;5.50;1.50;;;19.60;99.90;;;;;;5064765;28;25093;-69
2022/10/18 12:26:19;;;;;;;7.53;1.65;;;19.20;99.90;;;;;;5087515;28;25069;-68
2022/10/18 12:29:11;;;;;;;11.25;1.40;;;19.70;99.90;;;;;;5082058;28;25056;-71
2022/10/18 12:31:43;;;;;;;10.32;1.50;;;19.80;99.90;;;;;;5056392;28;25055;-72
2022/10/18 12:34:21;;;;;;;6.10;1.55;;;19.70;99.90;;;;;;5068707;28;25119;-73
2022/10/18 12:36:58;;;;;;;6.70;1.17;;;19.40;99.90;;;;;;5074078;28;25053;-70
2022/10/18 12:39:48;;;;;;;3.92;1.60;;;19.40;99.90;;;;;;5065101;28;25064;-71
2022/10/18 12:42:26;;;;;;;6.88;1.58;;;20.30;99.90;;;;;;5039247;28;25060;-70
2022/10/18 12:45:04;;;;;;;4.88;1.00;;;20.30;99.90;;;;;;5080042;28;25103;-72
2022/10/18 12:47:31;;;;;;;4.13;1.10;;;19.70;99.90;;;;;;5066908;28;25167;-71
2022/10/18 12:50:02;;;;;;;7.50;1.13;;;19.10;99.90;;;;;;5079095;28;25050;-71
2022/10/18 12:52:32;;;;;;;6.88;2.05;;;19.10;99.90;;;;;;5069605;28;25152;-71